Aérodrome :
LOGIN :

S'inscrire | Disclaimer

   EN    FR    IT 

 










Légende :    VFR   VFR Marginal   IFR   IFR Intensif   IFR Très Intensif
Visi : 
Plafond : 
>= 8 km
>= 3000ft
5 à 8 km
1000 à 3000 ft
1500m à 5 km
500 à 1000 ft
800 à 1500m
200 à 500 ft
< 800m
< 200 ft
Symboles :   Orages  Brouillard  Fortes neiges  Fortes précipitations  Vent > 20 kt
SIGMETs :   Divers  Orages  Givrage  Turbulence  Onde Orograph.  Cendres Volcan.







- Altitude de l'aérodrome : 291 ft
- Code IATA : ORY
- Voir les cartes d'approche


LFPO - Paris-Orly

DERNIER METAR :
  • 200800Z 04006KT 1500 VCFG BR OVC003 02/02 Q1012 TEMPO 0600 FG VV///

METARs EXPIRÉS :
  • 200730Z 04005KT 1500 -RA VCFG BR OVC003 02/02 Q1011 TEMPO 0600 FG VV///
  • 200700Z 04005KT 1500 -DZRA VCFG BR OVC003 02/02 Q1011 TEMPO 0600 FG VV///
  • 200630Z 05005KT 1200 R02/P2000 R26/P2000 R08/P2000 R24/P2000 R06/P2000 -DZRA VCFG BR OVC002 02/02 Q1010 TEMPO 0600 FG VV///
  • 200600Z 05005KT 1200 R02/1800U R26/P2000 R08/1600N R24/P2000 R06/0900N BR BKN000 OVC001 02/02 Q1010 TEMPO 0600 FG VV///
  • 200530Z 06004KT 1200 R02/1300N R26/1500D R08/1300N R24/1200N R06/1300U BR BKN000 OVC001 02/02 Q1010 TEMPO 0600 FG VV///

TAF TAF LFPO
Valide du 20 à 06h jusqu'au 21 à 12h UTC


200500Z 2006/2112 VRB03KT 2000 BR BKN005
TEMPO 2006/2010 1200 -DZRA BKN003
PROB40
TEMPO 2006/2009 0600 FG VV///
BECMG 2010/2012 36008KT 8000 NSW BKN008
TEMPO 2012/2021 BKN011
BECMG 2022/2024 CAVOK
PROB30
TEMPO 2104/2107 3000 MIFG SCT003
ATIS : +33 1 49 75 65 80
Pas de NOTAMs connus pour ce terrain.



MET'MAP, la Météo Aéronautique d'un coup d'oeil ! - Copyright ORBIFLY Décembre 2007 - Disclaimer

ORBIFLY MET'MAP TEAM :

Programmation & Développement : Alexandra Zaïnal
Conception & Développement : Baudouin d'Aumeries
Co-Programmation & Développement : Marc-Olivier Méhu
Soutien technique & logistique : Manuel Goepfert

Contact : metmap@orbifly.com




SOURCES & CREDITS :

   NOAA